createdAt,value
2022-08-30T00:02:29.252Z,32.07
2022-08-30T00:04:29.147Z,32.12
2022-08-30T00:06:29.189Z,31.53
2022-08-30T00:09:29.187Z,31.59
2022-08-30T00:11:29.492Z,32.28
2022-08-30T00:14:29.182Z,32.07
2022-08-30T00:16:29.165Z,32.41
2022-08-30T00:19:29.163Z,31.88
2022-08-30T00:21:29.179Z,31.98
2022-08-30T00:24:29.197Z,32.23
2022-08-30T00:27:29.145Z,32.89
2022-08-30T00:29:29.185Z,32.2
2022-08-30T00:32:29.172Z,32.93
2022-08-30T00:35:29.180Z,32.3
2022-08-30T00:37:29.164Z,32.95
2022-08-30T00:40:29.222Z,32.52
2022-08-30T00:42:29.175Z,32.66
2022-08-30T00:45:29.192Z,32.57
2022-08-30T00:48:29.183Z,32.79
2022-08-30T00:50:29.198Z,33.05
2022-08-30T00:53:29.173Z,33.09
2022-08-30T00:56:29.184Z,33.13
2022-08-30T00:58:29.186Z,33.03
2022-08-30T01:01:30.426Z,33.55
2022-08-30T01:04:29.195Z,33.59
2022-08-30T01:06:32.446Z,33.53
2022-08-30T01:08:39.416Z,33.82
2022-08-30T01:10:39.465Z,33.89
2022-08-30T01:13:29.181Z,33.71
2022-08-30T01:15:29.212Z,33.2
2022-08-30T01:17:29.212Z,33.5
2022-08-30T01:20:29.212Z,33.62
2022-08-30T01:23:29.202Z,33.73
2022-08-30T01:25:29.193Z,33.52
2022-08-30T01:28:29.225Z,33.58
2022-08-30T01:31:29.163Z,33.71
2022-08-30T01:33:29.214Z,33.69
2022-08-30T01:36:29.189Z,33.64
2022-08-30T01:38:29.233Z,34.59
2022-08-30T01:41:29.242Z,34.16
2022-08-30T01:44:29.182Z,33.8
2022-08-30T01:46:29.249Z,34.56
2022-08-30T01:48:31.108Z,34.39
2022-08-30T01:51:29.169Z,34.52
2022-08-30T01:53:29.214Z,34.66
2022-08-30T01:55:29.216Z,34.64
2022-08-30T01:58:29.202Z,34.72
2022-08-30T02:00:29.218Z,34.5
2022-08-30T02:02:29.216Z,34.3
2022-08-30T02:04:29.238Z,34.32
2022-08-30T02:07:29.213Z,34.37
2022-08-30T02:10:29.213Z,34.7
2022-08-30T02:13:29.202Z,34.85
2022-08-30T02:15:30.207Z,34.38
2022-08-30T02:18:29.276Z,34.52
2022-08-30T02:21:29.221Z,34.45
2022-08-30T02:26:29.244Z,34.69
2022-08-30T02:28:29.220Z,35.37
2022-08-30T02:31:29.202Z,35.08
2022-08-30T02:34:29.234Z,34.88
2022-08-30T02:36:29.561Z,34.99
2022-08-30T02:39:29.223Z,35.35
2022-08-30T02:42:29.235Z,35.51
2022-08-30T02:45:29.230Z,35.68
2022-08-30T02:48:29.188Z,35.35
2022-08-30T02:50:29.217Z,35.45
2022-08-30T02:53:29.195Z,35.57
2022-08-30T02:55:29.465Z,35.46
2022-08-30T02:59:29.229Z,35.51
2022-08-30T03:02:29.235Z,35.48
2022-08-30T03:05:29.302Z,35.5
2022-08-30T03:08:29.243Z,35.29
2022-08-30T03:10:29.230Z,35.51
2022-08-30T03:12:29.517Z,35.5
2022-08-30T03:15:36.330Z,35.67
2022-08-30T03:18:29.216Z,36.07
2022-08-30T03:21:29.221Z,36.37
2022-08-30T03:23:29.238Z,36.05
2022-08-30T03:26:29.220Z,36.17
2022-08-30T03:29:29.197Z,36.37
2022-08-30T03:31:29.236Z,36.4
2022-08-30T03:34:29.214Z,36.6
2022-08-30T03:37:29.195Z,36.34
2022-08-30T03:39:29.245Z,36.28
2022-08-30T03:42:29.202Z,36.25
2022-08-30T03:44:29.229Z,36.45
2022-08-30T03:46:29.214Z,36.12
2022-08-30T03:49:29.253Z,36.56
2022-08-30T03:51:29.224Z,36.5
2022-08-30T03:54:29.238Z,36.58
2022-08-30T03:56:29.285Z,36.49
2022-08-30T03:59:29.252Z,36.57
2022-08-30T04:02:29.277Z,36.65
2022-08-30T04:04:29.217Z,36.93
2022-08-30T04:06:29.219Z,36.82
2022-08-30T04:09:29.226Z,36.82
2022-08-30T04:12:29.190Z,36.74
2022-08-30T04:14:29.223Z,36.73
2022-08-30T04:16:29.330Z,36.61
2022-08-30T04:19:29.216Z,37.03
2022-08-30T04:21:29.226Z,36.81
2022-08-30T04:24:29.807Z,36.84
2022-08-30T04:27:29.200Z,36.99
2022-08-30T04:29:29.255Z,36.85
2022-08-30T04:32:29.283Z,36.69
2022-08-30T04:35:29.239Z,36.92
2022-08-30T04:37:29.236Z,36.97
2022-08-30T04:40:29.271Z,37.08
2022-08-30T04:42:29.244Z,37.12
2022-08-30T04:45:29.264Z,37.2
2022-08-30T04:48:29.278Z,37.32
2022-08-30T04:51:29.260Z,37.49
2022-08-30T04:53:29.232Z,37.71
2022-08-30T04:55:29.282Z,37.9
2022-08-30T04:58:29.295Z,37.73
2022-08-30T05:00:30.115Z,37.49
2022-08-30T05:03:29.249Z,37.66
2022-08-30T05:06:29.235Z,38.15
2022-08-30T05:08:29.250Z,38.13
2022-08-30T05:10:29.272Z,37.64
2022-08-30T05:13:35.456Z,37.5
2022-08-30T05:16:29.303Z,37.65
2022-08-30T05:18:29.265Z,37.6
2022-08-30T05:21:29.244Z,37.41
2022-08-30T05:24:29.248Z,37.82
2022-08-30T05:26:29.281Z,37.6
2022-08-30T05:28:29.273Z,37.49
2022-08-30T05:31:29.312Z,37.56
2022-08-30T05:33:29.269Z,37.21
2022-08-30T05:35:29.273Z,37.26
2022-08-30T05:37:29.277Z,37.17
2022-08-30T05:40:29.374Z,37.34
2022-08-30T05:42:29.261Z,37.53
2022-08-30T05:45:29.297Z,37.68
2022-08-30T05:48:29.275Z,37.31
2022-08-30T05:50:29.308Z,36.99
2022-08-30T05:53:29.286Z,37.31
2022-08-30T05:55:29.344Z,37.2
2022-08-30T05:58:29.276Z,37.17
2022-08-30T06:01:29.341Z,37.09
2022-08-30T06:03:29.295Z,37.1
2022-08-30T06:06:29.248Z,37.17
2022-08-30T06:08:29.296Z,37.4
2022-08-30T06:10:29.294Z,37.23
2022-08-30T06:12:29.511Z,37.19
2022-08-30T06:15:29.289Z,37.27
2022-08-30T06:18:29.324Z,37.26
2022-08-30T06:21:29.273Z,37.31
2022-08-30T06:24:41.349Z,37.87
2022-08-30T06:27:29.267Z,37.43
2022-08-30T06:29:29.709Z,37.48
2022-08-30T06:32:29.317Z,37.86
2022-08-30T06:35:29.557Z,37.57
2022-08-30T06:38:29.226Z,37.4
2022-08-30T06:40:29.362Z,37.46
2022-08-30T06:43:29.224Z,37.02
2022-08-30T06:45:29.315Z,37.14
2022-08-30T06:48:29.317Z,36.95
2022-08-30T06:51:29.254Z,36.45
2022-08-30T06:53:29.277Z,36.91
2022-08-30T06:56:31.085Z,36.57
2022-08-30T06:58:29.287Z,36.64
2022-08-30T07:00:29.260Z,36.68
2022-08-30T07:02:29.377Z,36.39
2022-08-30T07:05:29.294Z,36.31
2022-08-30T07:08:29.284Z,36.12
2022-08-30T07:11:29.258Z,36.14
2022-08-30T07:13:29.277Z,35.89
2022-08-30T07:15:29.271Z,36.09
2022-08-30T07:17:33.977Z,35.8
2022-08-30T07:20:29.433Z,35.55
2022-08-30T07:23:29.290Z,35.52
2022-08-30T07:26:29.285Z,35.77
2022-08-30T07:29:29.262Z,35.56
2022-08-30T07:31:29.297Z,35.66
2022-08-30T07:34:29.308Z,35.39
2022-08-30T07:36:29.338Z,35.34
2022-08-30T07:39:29.386Z,35.03
2022-08-30T07:42:29.277Z,35.17
2022-08-30T07:44:29.291Z,34.68
2022-08-30T07:46:29.329Z,34.8
2022-08-30T07:49:29.315Z,34.71
2022-08-30T07:52:30.783Z,35.15
2022-08-30T07:54:29.310Z,34.93
2022-08-30T07:56:29.326Z,34.69
2022-08-30T07:59:30.861Z,34.52
2022-08-30T08:01:29.412Z,34.52
2022-08-30T08:03:29.319Z,34.45
2022-08-30T08:05:29.337Z,34.29
2022-08-30T08:07:29.331Z,34.08
2022-08-30T08:10:29.333Z,33.83
2022-08-30T08:13:32.704Z,33.64
2022-08-30T08:15:29.354Z,33.84
2022-08-30T08:17:29.316Z,33.55
2022-08-30T08:20:29.310Z,33.46
2022-08-30T08:23:29.327Z,34.06
2022-08-30T08:26:29.313Z,33.72
2022-08-30T08:28:29.319Z,33.55
2022-08-30T08:31:33.092Z,33.52
2022-08-30T08:33:29.307Z,33.43
2022-08-30T08:36:29.341Z,33.2
2022-08-30T08:38:29.397Z,33.45
2022-08-30T08:41:29.330Z,33.29
2022-08-30T08:43:29.308Z,33.43
2022-08-30T08:45:29.311Z,33.16
2022-08-30T08:48:35.897Z,33.34
2022-08-30T08:51:29.308Z,33.02
2022-08-30T08:53:45.357Z,33.18
2022-08-30T08:55:29.300Z,33.32
2022-08-30T08:58:29.339Z,33.63
2022-08-30T09:00:29.369Z,33.38
2022-08-30T09:03:29.323Z,33.21
2022-08-30T09:05:29.331Z,33.19
2022-08-30T09:07:29.358Z,33.16
2022-08-30T09:10:47.410Z,33.31
2022-08-30T09:13:29.369Z,32.56
2022-08-30T09:16:29.417Z,32.91
2022-08-30T09:18:29.341Z,32.71
2022-08-30T09:21:29.338Z,33.02
2022-08-30T09:23:29.350Z,32.94
2022-08-30T09:26:29.356Z,32.93
2022-08-30T09:29:29.350Z,32.69
2022-08-30T09:31:29.449Z,32.79
2022-08-30T09:34:29.288Z,32.83
2022-08-30T09:36:29.417Z,32.71
2022-08-30T09:38:29.349Z,32.8
2022-08-30T09:40:29.390Z,32.54
2022-08-30T09:43:29.333Z,32.84
2022-08-30T09:45:29.349Z,32.71
2022-08-30T09:48:30.173Z,32.76
2022-08-30T09:51:29.398Z,32.82
2022-08-30T09:54:30.263Z,32.71
2022-08-30T09:57:30.033Z,32.91
2022-08-30T10:00:29.415Z,32.92
2022-08-30T10:03:36.091Z,33.15
2022-08-30T10:05:29.373Z,32.31
2022-08-30T10:07:29.345Z,32.24
2022-08-30T10:09:29.354Z,32.35
2022-08-30T10:11:29.367Z,32.22
2022-08-30T10:13:29.349Z,32.15
2022-08-30T10:15:29.373Z,32.04
2022-08-30T10:18:29.343Z,31.68
2022-08-30T10:21:29.351Z,31.98
2022-08-30T10:24:33.296Z,31.86
2022-08-30T10:27:29.345Z,31.92
2022-08-30T10:29:29.334Z,31.8
2022-08-30T10:32:29.373Z,31.99
2022-08-30T10:35:34.042Z,32.1
2022-08-30T10:37:29.343Z,31.42
2022-08-30T10:39:30.954Z,31.52
2022-08-30T10:42:29.381Z,31.48
2022-08-30T10:45:29.350Z,31.72
2022-08-30T10:47:30.245Z,31.59
2022-08-30T10:49:29.694Z,31.7
2022-08-30T10:52:29.802Z,31.43
2022-08-30T10:55:29.376Z,31.46
2022-08-30T10:58:29.544Z,31.47
2022-08-30T11:01:29.425Z,31.54
2022-08-30T11:04:29.385Z,31.68
2022-08-30T11:07:29.350Z,31.26
2022-08-30T11:10:29.362Z,31.19
2022-08-30T11:13:29.365Z,31.05
2022-08-30T11:16:29.368Z,31.18
2022-08-30T11:18:29.365Z,30.36
2022-08-30T11:21:29.365Z,29.91
2022-08-30T11:24:29.361Z,30.07
2022-08-30T11:27:29.349Z,30.33
2022-08-30T11:29:29.386Z,30.26
2022-08-30T11:31:29.380Z,29.79
2022-08-30T11:34:30.010Z,30.12
2022-08-30T11:36:37.128Z,29.62
2022-08-30T11:39:29.396Z,29.85
2022-08-30T11:42:29.942Z,29.37
2022-08-30T11:44:29.408Z,28.54
2022-08-30T11:47:29.395Z,29.33
2022-08-30T11:50:29.418Z,28.92
2022-08-30T11:53:29.375Z,28.97
2022-08-30T11:55:29.406Z,29.52
2022-08-30T11:58:29.388Z,29.01
2022-08-30T12:01:42.173Z,29.1
2022-08-30T12:03:29.579Z,29.02
2022-08-30T12:05:29.450Z,29.6
2022-08-30T12:08:29.384Z,29.74
2022-08-30T12:10:29.414Z,29.11
2022-08-30T12:13:29.390Z,29.43
2022-08-30T12:17:29.392Z,29.53
2022-08-30T12:19:29.408Z,29.26
2022-08-30T12:21:29.398Z,29.12
2022-08-30T12:24:29.379Z,28.67
2022-08-30T12:26:29.501Z,28.78
2022-08-30T12:28:29.553Z,28.26
2022-08-30T12:31:29.421Z,28.07
2022-08-30T12:33:30.339Z,28.15
2022-08-30T12:36:23.803Z,27
2022-08-30T12:38:29.425Z,27.46
2022-08-30T12:41:29.388Z,27.77
2022-08-30T12:43:33.103Z,27.77
2022-08-30T12:45:29.455Z,27.05
2022-08-30T12:48:29.428Z,26.83
2022-08-30T12:51:29.419Z,26.19
2022-08-30T12:54:29.404Z,26.92
2022-08-30T12:57:35.079Z,26.95
2022-08-30T13:00:29.410Z,26.88
2022-08-30T13:02:29.451Z,27.21
2022-08-30T13:04:29.423Z,27.36
2022-08-30T13:07:29.384Z,27.15
2022-08-30T13:09:32.377Z,27.31
2022-08-30T13:11:29.746Z,27.29
2022-08-30T13:14:29.413Z,27.24
2022-08-30T13:17:29.408Z,27.14
2022-08-30T13:20:29.408Z,26.74
2022-08-30T13:23:29.383Z,26.72
2022-08-30T13:25:29.405Z,26.09
2022-08-30T13:27:29.406Z,26.1
2022-08-30T13:30:29.413Z,25.79
2022-08-30T13:33:29.410Z,27.02
2022-08-30T13:36:29.401Z,26.77
2022-08-30T13:38:29.415Z,26.69
2022-08-30T13:40:29.430Z,26.43
2022-08-30T13:43:29.415Z,26.56
2022-08-30T13:45:42.932Z,25.19
2022-08-30T13:47:33.147Z,26
2022-08-30T13:50:30.351Z,25.96
2022-08-30T13:53:53.939Z,25.53
2022-08-30T13:56:29.413Z,25.64
2022-08-30T13:59:29.451Z,25.87
2022-08-30T14:02:29.453Z,26.25
2022-08-30T14:05:48.632Z,25.66
2022-08-30T14:08:46.134Z,25.55
2022-08-30T14:10:31.127Z,25.36
2022-08-30T14:13:29.562Z,24.82
2022-08-30T14:15:29.444Z,25.35
2022-08-30T14:17:29.536Z,25.29
2022-08-30T14:20:29.463Z,25.26
2022-08-30T14:22:29.491Z,25.33
2022-08-30T14:25:29.454Z,25.69
2022-08-30T14:27:29.460Z,25.27
2022-08-30T14:29:29.457Z,25.43
2022-08-30T14:32:29.436Z,24.68
2022-08-30T14:34:29.642Z,24.13
2022-08-30T14:37:29.445Z,24.3
2022-08-30T14:39:29.453Z,25.08
2022-08-30T14:42:29.417Z,24.22
2022-08-30T14:44:37.516Z,24.36
2022-08-30T14:47:29.989Z,24.26
2022-08-30T14:50:29.445Z,24.22
2022-08-30T14:53:29.477Z,24.11
2022-08-30T14:56:29.472Z,24.03
2022-08-30T14:59:29.482Z,23.27
2022-08-30T15:02:29.478Z,23.04
2022-08-30T15:04:29.505Z,23.78
2022-08-30T15:06:29.448Z,23.66
2022-08-30T15:08:29.463Z,23.9
2022-08-30T15:12:29.437Z,23.99
2022-08-30T15:14:29.425Z,23.93
2022-08-30T15:17:29.449Z,24.12
2022-08-30T15:19:29.479Z,23.05
2022-08-30T15:21:29.586Z,24.18
2022-08-30T15:24:30.096Z,23.26
2022-08-30T15:26:29.486Z,23.84
2022-08-30T15:28:29.504Z,23.57
2022-08-30T15:31:29.515Z,23.74
2022-08-30T15:33:29.507Z,23.48
2022-08-30T15:35:29.504Z,24.12
2022-08-30T15:38:29.518Z,24.13
2022-08-30T15:41:29.529Z,24.01
2022-08-30T15:43:29.478Z,23.9
2022-08-30T15:46:29.973Z,23.72
2022-08-30T15:49:29.454Z,24.08
2022-08-30T15:51:30.735Z,23.45
2022-08-30T15:53:29.499Z,23.43
2022-08-30T15:55:29.514Z,23.56
2022-08-30T15:57:30.513Z,23.38
2022-08-30T16:00:29.620Z,24.36
2022-08-30T16:03:29.521Z,24.33
2022-08-30T16:06:29.508Z,25.22
2022-08-30T16:09:29.792Z,24.4
2022-08-30T16:11:29.512Z,24.36
2022-08-30T16:14:29.518Z,24.2
2022-08-30T16:17:29.554Z,24.95
2022-08-30T16:20:29.496Z,25.07
2022-08-30T16:22:29.513Z,25.5
2022-08-30T16:25:39.774Z,25.8
2022-08-30T16:27:29.527Z,25.48
2022-08-30T16:30:29.566Z,24.82
2022-08-30T16:33:29.517Z,24.86
2022-08-30T16:35:29.523Z,25.45
2022-08-30T16:37:29.555Z,25.08
2022-08-30T16:40:29.613Z,25.23
2022-08-30T16:43:29.478Z,25.15
2022-08-30T16:45:33.022Z,23.9
2022-08-30T16:48:29.501Z,24.37
2022-08-30T16:51:29.504Z,24.5
2022-08-30T16:53:29.557Z,24.9
2022-08-30T16:56:29.794Z,24.58
2022-08-30T16:59:29.498Z,25.34
2022-08-30T17:01:29.562Z,23.97
2022-08-30T17:04:29.514Z,23.69
2022-08-30T17:06:29.514Z,24.03
2022-08-30T17:09:29.533Z,23.93
2022-08-30T17:12:29.528Z,24.39
2022-08-30T17:14:29.534Z,23.95
2022-08-30T17:16:29.690Z,24.22
2022-08-30T17:19:29.553Z,24.91
2022-08-30T17:21:29.568Z,24.25
2022-08-30T17:24:29.533Z,24.24
2022-08-30T17:26:29.544Z,24.28
2022-08-30T17:28:29.543Z,24.36
2022-08-30T17:30:29.554Z,24.19
2022-08-30T17:33:29.527Z,24.3
2022-08-30T17:36:29.529Z,24.87
2022-08-30T17:38:29.566Z,25.2
2022-08-30T17:41:29.551Z,24.37
2022-08-30T17:44:29.620Z,24.23
2022-08-30T17:46:29.602Z,24.11
2022-08-30T17:49:45.200Z,23.83
2022-08-30T17:52:29.563Z,23.82
2022-08-30T17:55:30.758Z,24.08
2022-08-30T17:57:29.599Z,24.67
2022-08-30T18:00:29.592Z,23.78
2022-08-30T18:03:29.575Z,23.24
2022-08-30T18:05:29.581Z,23.39
2022-08-30T18:08:29.530Z,23.41
2022-08-30T18:10:34.385Z,23.59
2022-08-30T18:12:29.555Z,23.29
2022-08-30T18:14:29.550Z,23.67
2022-08-30T18:17:29.566Z,23.3
2022-08-30T18:20:31.188Z,23.22
2022-08-30T18:22:29.605Z,23.19
2022-08-30T18:25:29.891Z,23.51
2022-08-30T18:28:29.514Z,23.53
2022-08-30T18:30:33.371Z,23.42
2022-08-30T18:32:35.937Z,23.72
2022-08-30T18:34:29.558Z,23.72
2022-08-30T18:37:29.545Z,23.33
2022-08-30T18:40:29.631Z,23.65
2022-08-30T18:42:29.748Z,23.78
2022-08-30T18:45:29.561Z,23.8
2022-08-30T18:48:29.561Z,23.69
2022-08-30T18:50:29.568Z,24.21
2022-08-30T18:52:29.585Z,23.91
2022-08-30T18:54:29.612Z,23.96
2022-08-30T18:57:29.575Z,24.71
2022-08-30T19:00:29.586Z,23.99
2022-08-30T19:02:29.600Z,24.09
2022-08-30T19:05:29.608Z,24.31
2022-08-30T19:08:29.577Z,24.51
2022-08-30T19:10:29.607Z,24.23
2022-08-30T19:12:29.586Z,24.41
2022-08-30T19:14:29.595Z,24.39
2022-08-30T19:17:29.594Z,24.82
2022-08-30T19:20:29.568Z,24.17
2022-08-30T19:22:36.071Z,24.52
2022-08-30T19:25:29.615Z,24.42
2022-08-30T19:28:29.609Z,24.44
2022-08-30T19:30:30.144Z,24.52
2022-08-30T19:33:29.596Z,24.31
2022-08-30T19:36:29.584Z,24.34
2022-08-30T19:38:29.618Z,24.27
2022-08-30T19:41:29.645Z,24.17
2022-08-30T19:44:29.606Z,24.33
2022-08-30T19:46:29.604Z,24.4
2022-08-30T19:49:29.581Z,24.34
2022-08-30T19:51:29.624Z,24.5
2022-08-30T19:54:29.623Z,24.32
2022-08-30T19:57:29.576Z,24.45
2022-08-30T19:59:29.566Z,24.23
2022-08-30T20:01:32.266Z,24.48
2022-08-30T20:04:29.592Z,24.69
2022-08-30T20:06:29.596Z,24.46
2022-08-30T20:08:29.621Z,24.9
2022-08-30T20:11:29.601Z,24.84
2022-08-30T20:13:29.628Z,24.58
2022-08-30T20:16:35.590Z,24.68
2022-08-30T20:19:29.612Z,24.58
2022-08-30T20:22:29.608Z,24.61
2022-08-30T20:25:01.625Z,25.59
2022-08-30T20:27:29.619Z,24.84
2022-08-30T20:29:29.610Z,24.76
2022-08-30T20:32:29.605Z,24.96
2022-08-30T20:34:29.623Z,25.4
2022-08-30T20:36:29.626Z,25.37
2022-08-30T20:39:29.619Z,24.64
2022-08-30T20:41:29.631Z,24.93
2022-08-30T20:43:29.655Z,25.59
2022-08-30T20:45:31.081Z,24.92
2022-08-30T20:48:29.701Z,25.02
2022-08-30T20:50:29.685Z,25.13
2022-08-30T20:53:29.652Z,25.94
2022-08-30T20:56:29.652Z,25.09
2022-08-30T20:58:29.658Z,25.54
2022-08-30T21:00:29.691Z,25.07
2022-08-30T21:03:29.604Z,26.65
2022-08-30T21:05:29.600Z,25.68
2022-08-30T21:07:29.709Z,26.24
2022-08-30T21:10:29.603Z,25.75
2022-08-30T21:12:29.631Z,25.66
2022-08-30T21:14:29.661Z,25.88
2022-08-30T21:17:29.675Z,25.79
2022-08-30T21:20:29.675Z,26.07
2022-08-30T21:23:29.610Z,26.68
2022-08-30T21:25:29.858Z,26.22
2022-08-30T21:28:29.633Z,26.34
2022-08-30T21:30:29.727Z,26.24
2022-08-30T21:33:29.638Z,26.23
2022-08-30T21:36:29.599Z,26.64
2022-08-30T21:40:30.002Z,26.37
2022-08-30T21:43:29.667Z,26.81
2022-08-30T21:46:29.724Z,26.27
2022-08-30T21:49:29.615Z,26.15
2022-08-30T21:51:29.623Z,26.24
2022-08-30T21:53:29.668Z,26.88
2022-08-30T21:56:29.642Z,26.16
2022-08-30T21:59:29.653Z,26.25
2022-08-30T22:01:29.699Z,26.29
2022-08-30T22:04:29.670Z,26.85
2022-08-30T22:07:29.667Z,26.92
2022-08-30T22:10:32.956Z,27.04
2022-08-30T22:12:29.631Z,27.5
2022-08-30T22:14:29.670Z,27.39
2022-08-30T22:17:29.619Z,27.75
2022-08-30T22:19:31.427Z,27.68
2022-08-30T22:21:29.640Z,27.47
2022-08-30T22:24:32.152Z,28.01
2022-08-30T22:26:29.678Z,28.01
2022-08-30T22:29:29.679Z,27.84
2022-08-30T22:31:29.708Z,27.88
2022-08-30T22:34:29.671Z,27.84
2022-08-30T22:37:29.649Z,27.84
2022-08-30T22:39:29.671Z,28.1
2022-08-30T22:42:29.642Z,28.19
2022-08-30T22:45:29.707Z,28.38
2022-08-30T22:47:29.667Z,28.42
2022-08-30T22:49:29.698Z,28.46
2022-08-30T22:53:34.271Z,28.4
2022-08-30T22:54:29.643Z,28.44
2022-08-30T22:57:29.682Z,28.69
2022-08-30T22:59:31.347Z,28.84
2022-08-30T23:02:29.724Z,28.77
2022-08-30T23:04:29.682Z,28.93
2022-08-30T23:07:29.680Z,29.24
2022-08-30T23:09:29.674Z,29.31
2022-08-30T23:11:30.653Z,29.43
2022-08-30T23:14:29.702Z,29.26
2022-08-30T23:16:29.706Z,29.61
2022-08-30T23:19:29.700Z,29.66
2022-08-30T23:21:29.703Z,29.66
2022-08-30T23:23:29.702Z,29.59
2022-08-30T23:25:30.175Z,29.4
2022-08-30T23:28:30.428Z,29.57
2022-08-30T23:31:29.748Z,29.98
2022-08-30T23:33:29.720Z,29.56
2022-08-30T23:36:29.709Z,29.93
2022-08-30T23:38:29.717Z,29.54
2022-08-30T23:40:29.783Z,29.7
2022-08-30T23:43:29.708Z,29.94
2022-08-30T23:45:29.774Z,29.94
2022-08-30T23:48:29.702Z,29.61
2022-08-30T23:50:29.713Z,30.28
2022-08-30T23:53:29.710Z,29.88
2022-08-30T23:55:29.716Z,30.3
2022-08-30T23:58:29.727Z,30.02
